Time;durP1;ratioP1;P1;durP2;ratioP2;P2;SDS_P1;SDS_P2;PMS_P1;PMS_P2;Temp;Humidity;BMP_temperature;BMP_pressure;BME280_temperature;BME280_humidity;BME280_pressure;Samples;Min_cycle;Max_cycle;Signal;HPM_P1;HPM_P2
2022/09/16 00:00:06;;;;;;;;;;;;;;;12.47;100.00;99328.94;5033495;28;19976;-80
2022/09/16 00:02:31;;;;;;;;;;;;;;;12.46;100.00;99336.75;5031734;28;20385;-80
2022/09/16 00:04:57;;;;;;;;;;;;;;;12.39;100.00;99343.06;5033340;28;19999;-80
2022/09/16 00:07:22;;;;;;;;;;;;;;;12.41;100.00;99346.16;5033077;28;20345;-80
2022/09/16 00:09:47;;;;;;;;;;;;;;;12.36;100.00;99346.16;5033538;28;20392;-79
2022/09/16 00:12:12;;;;;;;;;;;;;;;12.33;100.00;99353.75;5050463;28;19909;-80
2022/09/16 00:14:38;;;;;;;;;;;;;;;12.37;100.00;99339.16;5047637;28;19901;-80
2022/09/16 00:17:03;;;;;;;;;;;;;;;12.38;100.00;99347.25;5039249;28;19963;-81
2022/09/16 00:19:28;;;;;;;;;;;;;;;12.35;100.00;99345.41;5033379;28;19909;-81
2022/09/16 00:21:53;;;;;;;;;;;;;;;12.33;100.00;99353.75;5033048;28;19913;-81
2022/09/16 00:24:19;;;;;;;;;;;;;;;12.37;100.00;99351.41;5033070;28;19931;-82
2022/09/16 00:26:44;;;;;;;;;;;;;;;12.34;100.00;99361.03;5033397;28;20427;-81
2022/09/16 00:29:09;;;;;;;;;;;;;;;12.23;100.00;99355.34;5033244;28;19909;-81
2022/09/16 00:31:34;;;;;;;;;;;;;;;12.23;100.00;99350.41;5033238;28;19913;-81
2022/09/16 00:34:00;;;;;;;;;;;;;;;12.23;100.00;99358.22;5033144;28;20353;-81
2022/09/16 00:36:25;;;;;;;;;;;;;;;12.26;100.00;99357.16;5033106;28;20004;-80
2022/09/16 00:38:53;;;;;;;;;;;;;;;12.30;100.00;99351.94;5032876;28;19963;-80
2022/09/16 00:41:23;;;;;;;;;;;;;;;12.33;100.00;99362.34;5033064;28;19991;-81
2022/09/16 00:43:55;;;;;;;;;;;;;;;12.23;100.00;99347.53;5033122;28;19909;-80
2022/09/16 00:46:32;;;;;;;;;;;;;;;12.27;100.00;99347.25;5034191;28;20378;-80
2022/09/16 00:48:59;;;;;;;;;;;;;;;12.17;100.00;99358.25;5032908;28;19915;-81
2022/09/16 00:51:24;;;;;;;;;;;;;;;12.14;100.00;99358.53;5033233;28;19908;-81
2022/09/16 00:53:51;;;;;;;;;;;;;;;12.10;100.00;99355.94;5032841;28;19909;-81
2022/09/16 00:56:16;;;;;;;;;;;;;;;12.07;100.00;99351.25;5034335;28;19909;-81
2022/09/16 00:58:43;;;;;;;;;;;;;;;12.07;100.00;99356.97;5037037;28;19916;-81
2022/09/16 01:01:08;;;;;;;;;;;;;;;12.12;100.00;99349.66;5036848;28;19909;-82
2022/09/16 01:03:34;;;;;;;;;;;;;;;12.12;100.00;99361.91;5036900;28;20376;-81
2022/09/16 01:06:00;;;;;;;;;;;;;;;12.15;100.00;99362.97;5037293;28;20007;-81
2022/09/16 01:08:25;;;;;;;;;;;;;;;12.25;100.00;99361.34;5037146;28;19960;-81
2022/09/16 01:10:50;;;;;;;;;;;;;;;12.30;100.00;99351.94;5037011;28;20336;-81
2022/09/16 01:13:15;;;;;;;;;;;;;;;12.36;100.00;99349.03;5036596;28;19909;-81
2022/09/16 01:15:44;;;;;;;;;;;;;;;12.46;100.00;99356.81;5036946;28;19916;-81
2022/09/16 01:18:09;;;;;;;;;;;;;;;12.43;100.00;99360.75;5036660;28;19909;-80
2022/09/16 01:20:34;;;;;;;;;;;;;;;12.44;100.00;99358.69;5036628;28;20012;-80
2022/09/16 01:23:15;;;;;;;;;;;;;;;12.47;100.00;99360.47;5036672;28;20280;-80
2022/09/16 01:25:43;;;;;;;;;;;;;;;12.52;100.00;99365.41;5036538;28;20332;-81
2022/09/16 01:28:27;;;;;;;;;;;;;;;12.51;100.00;99358.09;5036507;28;19916;-81
2022/09/16 01:30:58;;;;;;;;;;;;;;;12.49;100.00;99363.59;5036723;28;19909;-82
2022/09/16 01:33:36;;;;;;;;;;;;;;;12.52;100.00;99365.41;5034891;28;20277;-82
2022/09/16 01:36:01;;;;;;;;;;;;;;;12.58;100.00;99369.00;5035397;28;19908;-80
2022/09/16 01:38:26;;;;;;;;;;;;;;;12.57;100.00;99359.63;5035357;28;19963;-81
2022/09/16 01:40:53;;;;;;;;;;;;;;;12.48;100.00;99356.31;5035317;28;19913;-81
2022/09/16 01:43:18;;;;;;;;;;;;;;;12.51;100.00;99367.47;5035072;28;19966;-80
2022/09/16 01:45:53;;;;;;;;;;;;;;;12.52;100.00;99362.53;5035736;28;19920;-81
2022/09/16 01:48:23;;;;;;;;;;;;;;;12.61;100.00;99362.22;5034723;28;19909;-81
2022/09/16 01:51:00;;;;;;;;;;;;;;;12.55;100.00;99358.63;5036215;28;20258;-81
2022/09/16 01:53:25;;;;;;;;;;;;;;;12.55;100.00;99359.38;5037159;28;19949;-81
2022/09/16 01:55:58;;;;;;;;;;;;;;;12.57;100.00;99367.44;5035714;28;19967;-81
2022/09/16 01:58:23;;;;;;;;;;;;;;;12.60;100.00;99364.28;5035208;28;19909;-81
2022/09/16 02:00:49;;;;;;;;;;;;;;;12.63;100.00;99362.47;5035674;28;19916;-82
2022/09/16 02:03:15;;;;;;;;;;;;;;;12.61;100.00;99362.22;5035655;28;19964;-82
2022/09/16 02:05:47;;;;;;;;;;;;;;;12.61;100.00;99363.00;5037102;28;19965;-82
2022/09/16 02:08:14;;;;;;;;;;;;;;;12.64;100.00;99359.09;5034896;28;19909;-81
2022/09/16 02:10:40;;;;;;;;;;;;;;;12.75;100.00;99366.06;5035797;28;19909;-81
2022/09/16 02:13:09;;;;;;;;;;;;;;;12.82;100.00;99351.13;5035840;28;19913;-81
2022/09/16 02:15:34;;;;;;;;;;;;;;;12.75;100.00;99355.34;5035796;28;19909;-82
2022/09/16 02:18:08;;;;;;;;;;;;;;;12.73;100.00;99360.06;5049652;28;19900;-82
2022/09/16 02:20:34;;;;;;;;;;;;;;;12.62;100.00;99355.97;5051601;28;20358;-81
2022/09/16 02:23:02;;;;;;;;;;;;;;;12.68;100.00;99359.56;5036409;28;19941;-82
2022/09/16 02:25:28;;;;;;;;;;;;;;;12.72;100.00;99352.78;5035831;28;19908;-82
2022/09/16 02:27:53;;;;;;;;;;;;;;;12.73;100.00;99362.94;5035211;28;20384;-82
2022/09/16 02:30:19;;;;;;;;;;;;;;;12.64;100.00;99369.78;5035524;28;20424;-82
2022/09/16 02:32:49;;;;;;;;;;;;;;;12.72;100.00;99365.00;5035134;28;19909;-82
2022/09/16 02:35:15;;;;;;;;;;;;;;;12.67;100.00;99363.75;5034952;28;19948;-81
2022/09/16 02:37:46;;;;;;;;;;;;;;;12.53;100.00;99367.75;5035074;28;19916;-82
2022/09/16 02:40:16;;;;;;;;;;;;;;;12.38;100.00;99366.50;5034932;28;19916;-82
2022/09/16 02:42:41;;;;;;;;;;;;;;;12.41;100.00;99371.97;5034846;28;19913;-82
2022/09/16 02:45:06;;;;;;;;;;;;;;;12.30;100.00;99371.22;5035011;28;19932;-82
2022/09/16 02:47:35;;;;;;;;;;;;;;;12.31;100.00;99367.06;5034949;28;19912;-82
2022/09/16 02:50:06;;;;;;;;;;;;;;;12.27;100.00;99365.22;5034778;28;19913;-81
2022/09/16 02:52:32;;;;;;;;;;;;;;;12.32;100.00;99369.38;5034651;28;19932;-81
2022/09/16 02:55:02;;;;;;;;;;;;;;;12.30;100.00;99372.00;5036000;28;20358;-81
2022/09/16 02:57:28;;;;;;;;;;;;;;;12.34;100.00;99375.38;5034906;28;19960;-81
2022/09/16 02:59:53;;;;;;;;;;;;;;;12.31;100.00;99367.81;5034638;28;20326;-81
2022/09/16 03:02:18;;;;;;;;;;;;;;;12.32;100.00;99365.72;5034187;28;19917;-80
2022/09/16 03:04:44;;;;;;;;;;;;;;;12.35;100.00;99371.19;5034591;28;19916;-81
2022/09/16 03:07:09;;;;;;;;;;;;;;;12.37;100.00;99365.72;5034442;28;19909;-80
2022/09/16 03:09:34;;;;;;;;;;;;;;;12.42;100.00;99372.75;5034410;28;19919;-80
2022/09/16 03:12:12;;;;;;;;;;;;;;;12.48;100.00;99376.38;5034475;28;19909;-80
2022/09/16 03:14:50;;;;;;;;;;;;;;;12.44;100.00;99378.72;5034337;28;20357;-82
2022/09/16 03:17:22;;;;;;;;;;;;;;;12.34;100.00;99377.44;5034217;28;19913;-81
2022/09/16 03:20:09;;;;;;;;;;;;;;;12.39;100.00;99385.28;5034371;28;20269;-81
2022/09/16 03:22:34;;;;;;;;;;;;;;;12.42;100.00;99390.72;5035570;28;19913;-81
2022/09/16 03:25:07;;;;;;;;;;;;;;;12.47;100.00;99387.03;5035433;28;19916;-81
2022/09/16 03:27:43;;;;;;;;;;;;;;;12.47;100.00;99387.03;5034128;28;20388;-80
2022/09/16 03:30:09;;;;;;;;;;;;;;;12.23;100.00;99384.00;5034056;28;20346;-81
2022/09/16 03:32:39;;;;;;;;;;;;;;;12.18;100.00;99387.66;5034016;28;19909;-80
2022/09/16 03:35:07;;;;;;;;;;;;;;;12.17;100.00;99386.09;5034238;28;19941;-80
2022/09/16 03:37:34;;;;;;;;;;;;;;;12.02;100.00;99383.56;5035295;28;20000;-80
2022/09/16 03:40:02;;;;;;;;;;;;;;;11.91;100.00;99389.34;5050359;28;19909;-82
2022/09/16 03:42:27;;;;;;;;;;;;;;;11.93;100.00;99380.19;5033702;28;19956;-82
2022/09/16 03:44:53;;;;;;;;;;;;;;;11.94;100.00;99391.13;5033991;28;19952;-81
2022/09/16 03:47:18;;;;;;;;;;;;;;;11.86;100.00;99386.47;5033958;28;19909;-82
2022/09/16 03:49:43;;;;;;;;;;;;;;;11.89;100.00;99385.44;5033855;28;20383;-82
2022/09/16 03:52:09;;;;;;;;;;;;;;;11.90;100.00;99384.13;5033674;28;19995;-80
2022/09/16 03:54:34;;;;;;;;;;;;;;;11.86;100.00;99387.25;5033658;28;19909;-83
2022/09/16 03:57:00;;;;;;;;;;;;;;;11.82;100.00;99373.19;5033598;28;20361;-82
2022/09/16 03:59:25;;;;;;;;;;;;;;;11.83;100.00;99388.28;5034142;28;19913;-83
2022/09/16 04:01:51;;;;;;;;;;;;;;;11.92;100.00;99384.34;5033074;28;19924;-81
2022/09/16 04:04:16;;;;;;;;;;;;;;;11.90;100.00;99384.91;5033467;28;19909;-83
2022/09/16 04:06:41;;;;;;;;;;;;;;;11.87;100.00;99382.28;5033485;28;19940;-81
2022/09/16 04:09:07;;;;;;;;;;;;;;;11.87;100.00;99390.88;5033264;28;19909;-81
2022/09/16 04:11:33;;;;;;;;;;;;;;;11.86;100.00;99393.00;5033427;28;19909;-81
2022/09/16 04:13:59;;;;;;;;;;;;;;;11.84;100.00;99375.53;5033455;28;19917;-81
2022/09/16 04:16:24;;;;;;;;;;;;;;;11.91;100.00;99380.75;5033738;28;19913;-82
2022/09/16 04:18:49;;;;;;;;;;;;;;;12.00;100.00;99377.59;5033805;28;20020;-81
2022/09/16 04:21:15;;;;;;;;;;;;;;;12.04;100.00;99378.09;5049062;28;19913;-81
2022/09/16 04:23:40;;;;;;;;;;;;;;;11.96;100.00;99384.91;5037614;28;20273;-80
2022/09/16 04:26:05;;;;;;;;;;;;;;;11.95;100.00;99386.19;5035194;28;19909;-81
2022/09/16 04:28:31;;;;;;;;;;;;;;;11.93;100.00;99386.72;5033123;28;19971;-81
2022/09/16 04:31:00;;;;;;;;;;;;;;;11.98;100.00;99388.78;5032679;28;19909;-81
2022/09/16 04:33:29;;;;;;;;;;;;;;;11.97;100.00;99387.22;5033217;28;20007;-80
2022/09/16 04:36:00;;;;;;;;;;;;;;;12.04;100.00;99388.75;5032763;28;20381;-82
2022/09/16 04:38:25;;;;;;;;;;;;;;;12.06;100.00;99386.91;5033064;28;19913;-80
2022/09/16 04:40:53;;;;;;;;;;;;;;;12.07;100.00;99385.63;5033153;28;20250;-80
2022/09/16 04:43:18;;;;;;;;;;;;;;;12.07;100.00;99385.63;5034201;28;20324;-80
2022/09/16 04:45:43;;;;;;;;;;;;;;;12.12;100.00;99386.91;5032960;28;20412;-80
2022/09/16 04:48:08;;;;;;;;;;;;;;;12.07;100.00;99385.63;5034020;28;19992;-81
2022/09/16 04:50:34;;;;;;;;;;;;;;;12.03;100.00;99381.47;5032829;28;19909;-81
2022/09/16 04:53:00;;;;;;;;;;;;;;;12.10;100.00;99384.59;5032400;28;20419;-82
2022/09/16 04:55:25;;;;;;;;;;;;;;;12.15;100.00;99392.38;5032729;28;19920;-79
2022/09/16 04:57:51;;;;;;;;;;;;;;;12.23;100.00;99395.47;5032799;28;20301;-83
2022/09/16 05:00:18;;;;;;;;;;;;;;;12.32;100.00;99405.84;5033072;28;19913;-82
2022/09/16 05:02:47;;;;;;;;;;;;;;;12.46;100.00;99402.66;5032498;28;19963;-80
2022/09/16 05:05:16;;;;;;;;;;;;;;;12.47;100.00;99395.63;5049320;28;19908;-81
2022/09/16 05:07:42;;;;;;;;;;;;;;;12.42;100.00;99390.72;5033063;28;19909;-80
2022/09/16 05:10:09;;;;;;;;;;;;;;;12.51;100.00;99399.00;5032597;28;19909;-79
2022/09/16 05:12:34;;;;;;;;;;;;;;;12.53;100.00;99398.47;5032164;28;19916;-81
2022/09/16 05:14:59;;;;;;;;;;;;;;;12.58;100.00;99400.53;5032830;28;19909;-81
2022/09/16 05:17:28;;;;;;;;;;;;;;;12.50;100.00;99402.41;5032513;28;20388;-82
2022/09/16 05:19:53;;;;;;;;;;;;;;;12.57;100.00;99391.16;5032613;28;19920;-81
2022/09/16 05:22:19;;;;;;;;;;;;;;;12.61;100.00;99391.66;5032557;28;20299;-79
2022/09/16 05:24:51;;;;;;;;;;;;;;;12.75;100.00;99391.84;5032905;28;19915;-79
2022/09/16 05:27:31;;;;;;;;;;;;;;;12.76;100.00;99396.25;5029813;28;20281;-80
2022/09/16 05:30:03;;;;;;;;;;;;;;;12.89;100.00;99391.50;5031336;28;19913;-80
2022/09/16 05:32:28;;;;;;;;;;;;;;;12.86;100.00;99388.91;5032957;28;19916;-81
2022/09/16 05:35:15;;;;;;;;;;;;;;;12.94;100.00;99396.41;5032689;28;19909;-82
2022/09/16 05:37:41;;;;;;;;;;;;;;;13.09;100.00;99399.72;5031248;28;19916;-81
2022/09/16 05:40:06;;;;;;;;;;;;;;;13.19;100.00;99397.28;5031123;28;19909;-81
2022/09/16 05:42:32;;;;;;;;;;;;;;;13.33;100.00;99399.00;5030256;28;19912;-81
2022/09/16 05:44:57;;;;;;;;;;;;;;;13.36;100.00;99402.88;5035887;28;19971;-81
2022/09/16 05:47:22;;;;;;;;;;;;;;;13.22;100.00;99404.03;5051629;28;19909;-82
2022/09/16 05:49:48;;;;;;;;;;;;;;;13.43;100.00;99403.09;5035445;28;20376;-82
2022/09/16 05:52:14;;;;;;;;;;;;;;;13.35;100.00;99401.31;5035350;28;19909;-82
2022/09/16 05:54:39;;;;;;;;;;;;;;;13.52;100.00;99399.91;5036454;28;19913;-82
2022/09/16 05:57:04;;;;;;;;;;;;;;;13.66;100.00;99400.03;5034912;28;20015;-82
2022/09/16 05:59:30;;;;;;;;;;;;;;;13.89;100.00;99398.47;5036572;28;19956;-81
2022/09/16 06:01:55;;;;;;;;;;;;;;;14.04;100.00;99398.84;5037045;28;20395;-83
2022/09/16 06:04:20;;;;;;;;;;;;;;;14.75;100.00;99393.53;5019516;28;19971;-82
2022/09/16 06:06:46;;;;;;;;;;;;;;;16.29;100.00;99392.75;5035908;28;19909;-81
2022/09/16 06:09:18;;;;;;;;;;;;;;;16.91;100.00;99385.09;5035713;28;19913;-81
2022/09/16 06:11:48;;;;;;;;;;;;;;;17.90;98.16;99388.19;5035963;28;19916;-82
2022/09/16 06:14:13;;;;;;;;;;;;;;;18.28;90.17;99387.09;5035685;28;19913;-82
2022/09/16 06:16:38;;;;;;;;;;;;;;;18.07;87.37;99397.19;5052230;28;20046;-82
2022/09/16 06:19:09;;;;;;;;;;;;;;;17.92;88.73;99383.41;5035878;28;19916;-82
2022/09/16 06:21:34;;;;;;;;;;;;;;;16.83;91.86;99378.47;5035598;28;19999;-81
2022/09/16 06:24:00;;;;;;;;;;;;;;;16.84;95.15;99377.16;5042881;28;20439;-81
2022/09/16 06:26:25;;;;;;;;;;;;;;;16.97;96.77;99382.09;5075067;28;19920;-81
2022/09/16 06:28:51;;;;;;;;;;;;;;;16.73;97.40;99376.63;5037885;28;20004;-82
2022/09/16 06:31:17;;;;;;;;;;;;;;;16.47;99.48;99380.28;5036058;28;19916;-82
2022/09/16 06:33:43;;;;;;;;;;;;;;;16.41;99.72;99391.16;5052523;28;19909;-81
2022/09/16 06:36:08;;;;;;;;;;;;;;;16.39;100.00;99385.19;5036000;28;20008;-82
2022/09/16 06:38:34;;;;;;;;;;;;;;;15.92;100.00;99385.84;5035452;28;20003;-82
2022/09/16 06:40:59;;;;;;;;;;;;;;;15.99;100.00;99379.44;5035527;28;19909;-81
2022/09/16 06:43:25;;;;;;;;;;;;;;;17.08;100.00;99378.19;5035356;28;20008;-83
2022/09/16 06:45:50;;;;;;;;;;;;;;;18.89;88.96;99378.72;5051870;28;20365;-82
2022/09/16 06:48:16;;;;;;;;;;;;;;;20.97;73.89;99360.06;5035470;28;20436;-82
2022/09/16 06:50:41;;;;;;;;;;;;;;;21.05;67.72;99383.25;5036368;28;19916;-83
2022/09/16 06:53:06;;;;;;;;;;;;;;;20.96;65.93;99396.28;5035912;28;19909;-83
2022/09/16 06:55:31;;;;;;;;;;;;;;;22.36;63.48;99394.88;5032596;28;19909;-82
2022/09/16 06:57:57;;;;;;;;;;;;;;;22.51;57.32;99405.59;5017877;28;19915;-83
2022/09/16 07:00:22;;;;;;;;;;;;;;;23.60;52.39;99405.97;5016851;28;19932;-84
2022/09/16 07:02:47;;;;;;;;;;;;;;;21.62;54.79;99416.06;4998720;28;19918;-82
2022/09/16 07:05:13;;;;;;;;;;;;;;;22.21;55.26;99403.78;4998645;28;19909;-81
2022/09/16 07:07:39;;;;;;;;;;;;;;;23.32;54.53;99410.22;5014979;28;19953;-83
2022/09/16 07:10:05;;;;;;;;;;;;;;;22.88;52.90;99413.13;5014711;28;20353;-83
2022/09/16 07:12:30;;;;;;;;;;;;;;;21.91;53.38;99422.25;5014662;28;19913;-83
2022/09/16 07:14:56;;;;;;;;;;;;;;;20.71;58.98;99407.81;4998376;28;19910;-83
2022/09/16 07:17:24;;;;;;;;;;;;;;;19.63;65.32;99398.22;5014528;28;19916;-83
2022/09/16 07:19:50;;;;;;;;;;;;;;;19.90;68.70;99402.31;4998934;28;20389;-83
2022/09/16 07:22:15;;;;;;;;;;;;;;;19.87;68.71;99404.22;5014867;28;19917;-83
2022/09/16 07:24:40;;;;;;;;;;;;;;;20.07;66.49;99410.44;5014537;28;19909;-82
2022/09/16 07:27:06;;;;;;;;;;;;;;;20.30;64.20;99405.38;5014394;28;19909;-82
2022/09/16 07:29:31;;;;;;;;;;;;;;;20.31;63.64;99413.50;5015625;28;19909;-82
2022/09/16 07:31:56;;;;;;;;;;;;;;;21.38;58.26;99410.97;5014500;28;19909;-83
2022/09/16 07:34:22;;;;;;;;;;;;;;;22.18;56.15;99413.69;5014525;28;19913;-82
2022/09/16 07:36:47;;;;;;;;;;;;;;;22.90;51.18;99415.47;5014278;28;19909;-81
2022/09/16 07:39:13;;;;;;;;;;;;;;;22.82;53.60;99409.69;4997840;28;20282;-81
2022/09/16 07:41:39;;;;;;;;;;;;;;;22.24;51.76;99416.34;5013740;28;19917;-83
2022/09/16 07:44:06;;;;;;;;;;;;;;;21.81;54.48;99412.63;5016571;28;19977;-82
2022/09/16 07:46:32;;;;;;;;;;;;;;;21.50;55.69;99417.88;5013807;28;20362;-78
2022/09/16 07:48:58;;;;;;;;;;;;;;;20.56;61.03;99416.53;5013150;28;20047;-77
2022/09/16 07:51:23;;;;;;;;;;;;;;;20.06;63.23;99406.75;5011653;28;19909;-77
2022/09/16 07:53:52;;;;;;;;;;;;;;;19.92;66.37;99403.25;5011323;28;19914;-78
2022/09/16 07:56:18;;;;;;;;;;;;;;;19.88;65.20;99416.59;5011318;28;19920;-77
2022/09/16 07:58:44;;;;;;;;;;;;;;;19.64;63.24;99420.06;5011683;28;19955;-77
2022/09/16 08:01:10;;;;;;;;;;;;;;;19.62;64.20;99419.88;4994765;28;20316;-77
2022/09/16 08:03:36;;;;;;;;;;;;;;;19.00;66.24;99406.56;4995271;28;20016;-77
2022/09/16 08:06:11;;;;;;;;;;;;;;;19.41;66.14;99414.25;4994281;28;19916;-78
2022/09/16 08:08:36;;;;;;;;;;;;;;;19.74;63.86;99398.63;5011181;28;19960;-77
2022/09/16 08:11:02;;;;;;;;;;;;;;;19.64;63.85;99412.16;4996501;28;20010;-78
2022/09/16 08:13:28;;;;;;;;;;;;;;;20.15;64.40;99411.22;4997017;28;20002;-77
2022/09/16 08:15:54;;;;;;;;;;;;;;;20.27;62.37;99410.22;5014447;28;19909;-77
2022/09/16 08:18:20;;;;;;;;;;;;;;;20.41;59.84;99416.56;5014527;28;19996;-77
2022/09/16 08:20:45;;;;;;;;;;;;;;;19.98;59.29;99414.69;4997894;28;19994;-77
2022/09/16 08:23:11;;;;;;;;;;;;;;;19.53;60.96;99416.19;5013004;28;19909;-77
2022/09/16 08:25:36;;;;;;;;;;;;;;;19.12;62.88;99405.63;5013179;28;19959;-77
2022/09/16 08:28:09;;;;;;;;;;;;;;;19.41;66.94;99399.75;5019869;28;19909;-77
2022/09/16 08:30:35;;;;;;;;;;;;;;;19.78;61.14;99407.72;5024401;28;19945;-77
2022/09/16 08:33:01;;;;;;;;;;;;;;;20.29;60.52;99412.53;5002593;28;20329;-78
2022/09/16 08:35:26;;;;;;;;;;;;;;;20.34;54.45;99417.38;5021533;28;19917;-78
2022/09/16 08:37:52;;;;;;;;;;;;;;;20.60;52.94;99427.72;5039357;28;19913;-78
2022/09/16 08:40:21;;;;;;;;;;;;;;;20.30;54.34;99422.78;5018587;28;19925;-78
2022/09/16 08:43:07;;;;;;;;;;;;;;;20.70;56.33;99417.06;5042863;28;19919;-77
2022/09/16 08:45:38;;;;;;;;;;;;;;;21.44;52.45;99422.34;5013648;28;20302;-77
2022/09/16 08:48:12;;;;;;;;;;;;;;;21.58;52.40;99421.50;5013992;28;19967;-77
2022/09/16 08:50:39;;;;;;;;;;;;;;;21.08;52.72;99423.53;5013982;28;19917;-77
2022/09/16 08:53:06;;;;;;;;;;;;;;;21.01;55.61;99426.47;5029468;28;20008;-77
2022/09/16 08:55:33;;;;;;;;;;;;;;;20.78;56.38;99412.81;5039759;28;20280;-77
2022/09/16 08:58:01;;;;;;;;;;;;;;;20.97;54.07;99435.59;5035211;28;20022;-76
2022/09/16 09:00:26;;;;;;;;;;;;;;;20.06;54.39;99438.66;5020888;28;20476;-77
2022/09/16 09:02:58;;;;;;;;;;;;;;;19.44;58.42;99430.47;5018853;28;20007;-77
2022/09/16 09:05:35;;;;;;;;;;;;;;;18.79;61.54;99429.06;5020052;28;19920;-77
2022/09/16 09:08:04;;;;;;;;;;;;;;;18.48;64.61;99419.44;5020865;28;20316;-77
2022/09/16 09:10:50;;;;;;;;;;;;;;;18.32;65.38;99423.59;5036535;28;20019;-77
2022/09/16 09:13:19;;;;;;;;;;;;;;;18.73;70.64;99419.75;5042069;28;20307;-77
2022/09/16 09:15:50;;;;;;;;;;;;;;;19.45;61.67;99424.09;5029562;28;19923;-77
2022/09/16 09:18:25;;;;;;;;;;;;;;;19.43;61.25;99417.31;5034565;28;19913;-79
2022/09/16 09:21:09;;;;;;;;;;;;;;;19.01;60.33;99419.72;5036330;28;19913;-79
2022/09/16 09:23:40;;;;;;;;;;;;;;;18.90;62.88;99415.03;5034288;28;19917;-78
2022/09/16 09:26:22;;;;;;;;;;;;;;;18.78;66.75;99407.25;5034312;28;19916;-79
2022/09/16 09:28:50;;;;;;;;;;;;;;;18.74;65.61;99403.94;5034163;28;19908;-79
2022/09/16 09:31:34;;;;;;;;;;;;;;;18.41;65.10;99406.50;5035735;28;19944;-79
2022/09/16 09:34:18;;;;;;;;;;;;;;;17.82;64.94;99403.38;5050430;28;19909;-78
2022/09/16 09:36:53;;;;;;;;;;;;;;;17.74;67.91;99399.63;5035580;28;19909;-78
2022/09/16 09:39:35;;;;;;;;;;;;;;;17.87;69.47;99387.22;5035950;28;19970;-79
2022/09/16 09:42:03;;;;;;;;;;;;;;;18.34;68.77;99394.88;5037168;28;20016;-79
2022/09/16 09:44:40;;;;;;;;;;;;;;;18.32;67.54;99398.34;5037160;28;19970;-78
2022/09/16 09:47:26;;;;;;;;;;;;;;;18.27;67.91;99405.03;5037411;28;19940;-78
2022/09/16 09:49:56;;;;;;;;;;;;;;;18.26;81.40;99386.13;5036120;28;19964;-78
2022/09/16 09:52:21;;;;;;;;;;;;;;;17.49;86.30;99383.25;5035882;28;19909;-79
2022/09/16 09:54:50;;;;;;;;;;;;;;;17.09;90.51;99376.84;5036856;28;19909;-79
2022/09/16 09:57:24;;;;;;;;;;;;;;;17.15;98.64;99386.91;5052237;28;19909;-79
2022/09/16 09:59:52;;;;;;;;;;;;;;;17.29;94.87;99385.50;5036962;28;19916;-79
2022/09/16 10:02:19;;;;;;;;;;;;;;;17.24;87.02;99380.63;5035296;28;19960;-79
2022/09/16 10:04:44;;;;;;;;;;;;;;;16.68;83.19;99384.06;5035671;28;19964;-79
2022/09/16 10:07:13;;;;;;;;;;;;;;;16.44;87.38;99381.41;5052013;28;19944;-78
2022/09/16 10:09:45;;;;;;;;;;;;;;;16.58;92.15;99376.44;5035516;28;19913;-79
2022/09/16 10:12:10;;;;;;;;;;;;;;;16.87;87.73;99370.25;5035541;28;19916;-79
2022/09/16 10:14:36;;;;;;;;;;;;;;;17.06;87.15;99367.19;5036703;28;20289;-79
2022/09/16 10:17:12;;;;;;;;;;;;;;;17.30;79.58;99387.06;5052103;28;19909;-79
2022/09/16 10:19:51;;;;;;;;;;;;;;;17.14;69.72;99388.22;5068555;28;19909;-79
2022/09/16 10:22:25;;;;;;;;;;;;;;;17.25;70.71;99378.53;5037175;28;19917;-79
2022/09/16 10:24:55;;;;;;;;;;;;;;;16.99;70.28;99390.97;5036713;28;19992;-79
2022/09/16 10:27:20;;;;;;;;;;;;;;;16.96;66.93;99386.31;5051874;28;19909;-79
2022/09/16 10:29:46;;;;;;;;;;;;;;;16.96;68.73;99380.53;5036103;28;19988;-78
2022/09/16 10:32:14;;;;;;;;;;;;;;;16.91;70.85;99364.91;5048709;28;19909;-78
2022/09/16 10:34:41;;;;;;;;;;;;;;;17.06;72.98;99372.94;5044688;28;20341;-78
2022/09/16 10:37:11;;;;;;;;;;;;;;;16.79;71.94;99369.41;5035626;28;19917;-78
2022/09/16 10:39:37;;;;;;;;;;;;;;;16.57;73.08;99369.09;5036569;28;19913;-79
2022/09/16 10:42:02;;;;;;;;;;;;;;;16.65;73.17;99384.41;5034880;28;20007;-79
2022/09/16 10:44:31;;;;;;;;;;;;;;;16.32;69.79;99377.19;5034972;28;20265;-79
2022/09/16 10:46:57;;;;;;;;;;;;;;;16.11;73.46;99375.00;5067881;28;19912;-79
2022/09/16 10:49:43;;;;;;;;;;;;;;;16.13;73.61;99372.34;5034878;28;19909;-79
2022/09/16 10:52:16;;;;;;;;;;;;;;;16.25;73.84;99364.25;5035675;28;19915;-78
2022/09/16 10:54:41;;;;;;;;;;;;;;;16.36;74.49;99360.34;5035055;28;19909;-77
2022/09/16 10:57:19;;;;;;;;;;;;;;;16.19;73.38;99362.81;5051221;28;19991;-79
2022/09/16 10:59:54;;;;;;;;;;;;;;;16.32;74.67;99357.81;5035790;28;20015;-78
2022/09/16 11:02:19;;;;;;;;;;;;;;;16.40;69.33;99372.34;5035557;28;19917;-80
2022/09/16 11:05:07;;;;;;;;;;;;;;;16.47;70.17;99366.66;5035993;28;20262;-79
2022/09/16 11:07:41;;;;;;;;;;;;;;;16.60;64.73;99371.63;5032507;28;20336;-78
2022/09/16 11:10:25;;;;;;;;;;;;;;;16.81;65.75;99366.72;5034849;28;19980;-79
2022/09/16 11:12:53;;;;;;;;;;;;;;;17.14;63.09;99370.91;5034401;28;19909;-79
2022/09/16 11:15:27;;;;;;;;;;;;;;;17.44;62.55;99376.25;5035866;28;19932;-79
2022/09/16 11:17:55;;;;;;;;;;;;;;;17.58;58.72;99379.84;5035550;28;19912;-78
2022/09/16 11:20:33;;;;;;;;;;;;;;;17.39;57.37;99380.00;5035368;28;19909;-79
2022/09/16 11:22:58;;;;;;;;;;;;;;;17.21;59.57;99381.78;5050655;28;19924;-79
2022/09/16 11:25:36;;;;;;;;;;;;;;;17.16;62.28;99365.34;5035581;28;19909;-78
2022/09/16 11:28:02;;;;;;;;;;;;;;;17.41;60.42;99374.47;5034511;28;19915;-78
2022/09/16 11:30:27;;;;;;;;;;;;;;;17.65;60.37;99359.69;5034773;28;19909;-78
2022/09/16 11:32:54;;;;;;;;;;;;;;;17.75;59.12;99360.72;5051334;28;19946;-79
2022/09/16 11:35:20;;;;;;;;;;;;;;;17.90;59.39;99347.72;5036187;28;19944;-78
2022/09/16 11:37:48;;;;;;;;;;;;;;;18.01;58.99;99356.09;5035515;28;20376;-79
2022/09/16 11:40:32;;;;;;;;;;;;;;;17.98;57.43;99357.22;5034798;28;20247;-78
2022/09/16 11:42:57;;;;;;;;;;;;;;;17.60;57.80;99375.03;5050330;28;20277;-78
2022/09/16 11:45:22;;;;;;;;;;;;;;;17.36;63.23;99346.50;5035237;28;19996;-77
2022/09/16 11:47:51;;;;;;;;;;;;;;;17.05;67.92;99347.53;5035192;28;19975;-79
2022/09/16 11:50:22;;;;;;;;;;;;;;;16.96;69.63;99349.56;5050643;28;19919;-78
2022/09/16 11:52:56;;;;;;;;;;;;;;;16.73;67.51;99345.66;5033780;28;19913;-79
2022/09/16 11:55:31;;;;;;;;;;;;;;;16.51;66.78;99340.34;5034999;28;19932;-78
2022/09/16 11:58:01;;;;;;;;;;;;;;;16.80;71.63;99342.06;5014347;28;19917;-79
2022/09/16 12:00:26;;;;;;;;;;;;;;;17.11;68.76;99348.16;5012951;28;19915;-79
2022/09/16 12:02:58;;;;;;;;;;;;;;;17.34;66.09;99341.28;5011321;28;19918;-79
2022/09/16 12:05:34;;;;;;;;;;;;;;;17.49;65.85;99343.53;5013457;28;19932;-79
2022/09/16 12:08:01;;;;;;;;;;;;;;;17.61;68.02;99344.81;5012345;28;19917;-78
2022/09/16 12:10:36;;;;;;;;;;;;;;;17.54;70.19;99331.06;5014707;28;19914;-78
2022/09/16 12:13:06;;;;;;;;;;;;;;;17.59;66.24;99341.72;4997085;28;19913;-77
2022/09/16 12:15:35;;;;;;;;;;;;;;;17.47;67.04;99334.69;5013950;28;19932;-79
2022/09/16 12:18:01;;;;;;;;;;;;;;;17.59;66.43;99335.94;5015126;28;19910;-82
2022/09/16 12:20:30;;;;;;;;;;;;;;;17.53;65.72;99332.44;4997633;28;19914;-80
2022/09/16 12:23:08;;;;;;;;;;;;;;;17.50;64.41;99338.53;5014817;28;19953;-78
2022/09/16 12:25:37;;;;;;;;;;;;;;;17.46;62.96;99330.25;5015775;28;19909;-80
2022/09/16 12:28:05;;;;;;;;;;;;;;;17.49;61.66;99334.13;5013381;28;20343;-79
2022/09/16 12:30:34;;;;;;;;;;;;;;;17.66;65.66;99329.44;5015251;28;20321;-80
2022/09/16 12:33:08;;;;;;;;;;;;;;;17.73;64.19;99328.72;5002763;28;19910;-80
2022/09/16 12:35:37;;;;;;;;;;;;;;;17.71;63.75;99324.84;5037030;28;19917;-80
2022/09/16 12:38:03;;;;;;;;;;;;;;;17.59;64.15;99324.38;5015492;28;19928;-80
2022/09/16 12:40:47;;;;;;;;;;;;;;;17.32;63.27;99320.88;5014209;28;20301;-82
2022/09/16 12:43:12;;;;;;;;;;;;;;;17.20;65.02;99319.59;5014494;28;19929;-79
2022/09/16 12:45:49;;;;;;;;;;;;;;;17.01;67.69;99309.56;5012885;28;20000;-80